sensor_id;sensor_type;location;lat;lon;timestamp;P1;durP1;ratioP1;P2;durP2;ratioP2
31676;SDS011;18385;51.572;6.578;2022-10-28T00:00:53;8.25;;;2.47;;
31676;SDS011;18385;51.572;6.578;2022-10-28T00:03:18;10.05;;;3.42;;
31676;SDS011;18385;51.572;6.578;2022-10-28T00:05:44;11.10;;;2.75;;
31676;SDS011;18385;51.572;6.578;2022-10-28T00:08:10;6.13;;;2.20;;
31676;SDS011;18385;51.572;6.578;2022-10-28T00:10:35;7.45;;;3.17;;
31676;SDS011;18385;51.572;6.578;2022-10-28T00:13:01;8.02;;;2.00;;
31676;SDS011;18385;51.572;6.578;2022-10-28T00:15:27;8.30;;;2.30;;
31676;SDS011;18385;51.572;6.578;2022-10-28T00:17:53;6.47;;;2.33;;
31676;SDS011;18385;51.572;6.578;2022-10-28T00:20:18;12.15;;;2.67;;
31676;SDS011;18385;51.572;6.578;2022-10-28T00:22:44;12.27;;;3.03;;
31676;SDS011;18385;51.572;6.578;2022-10-28T00:25:10;8.82;;;2.40;;
31676;SDS011;18385;51.572;6.578;2022-10-28T00:27:36;10.80;;;3.22;;
31676;SDS011;18385;51.572;6.578;2022-10-28T00:30:01;11.20;;;3.22;;
31676;SDS011;18385;51.572;6.578;2022-10-28T00:32:28;10.43;;;2.60;;
31676;SDS011;18385;51.572;6.578;2022-10-28T00:34:54;7.97;;;3.22;;
31676;SDS011;18385;51.572;6.578;2022-10-28T00:37:20;9.55;;;2.90;;
31676;SDS011;18385;51.572;6.578;2022-10-28T00:39:45;9.70;;;2.63;;
31676;SDS011;18385;51.572;6.578;2022-10-28T00:42:11;9.18;;;2.58;;
31676;SDS011;18385;51.572;6.578;2022-10-28T00:49:46;10.32;;;2.67;;
31676;SDS011;18385;51.572;6.578;2022-10-28T00:52:17;8.05;;;2.42;;
31676;SDS011;18385;51.572;6.578;2022-10-28T00:54:46;14.00;;;3.22;;
31676;SDS011;18385;51.572;6.578;2022-10-28T00:57:15;8.50;;;2.70;;
31676;SDS011;18385;51.572;6.578;2022-10-28T00:59:46;10.25;;;2.45;;
31676;SDS011;18385;51.572;6.578;2022-10-28T01:02:14;11.48;;;2.40;;
31676;SDS011;18385;51.572;6.578;2022-10-28T01:04:40;7.32;;;2.72;;
31676;SDS011;18385;51.572;6.578;2022-10-28T01:07:07;9.00;;;2.30;;
31676;SDS011;18385;51.572;6.578;2022-10-28T01:09:33;10.57;;;2.50;;
31676;SDS011;18385;51.572;6.578;2022-10-28T01:17:37;11.00;;;2.80;;
31676;SDS011;18385;51.572;6.578;2022-10-28T01:20:24;5.85;;;2.65;;
31676;SDS011;18385;51.572;6.578;2022-10-28T01:23:14;13.45;;;3.45;;
31676;SDS011;18385;51.572;6.578;2022-10-28T01:42:20;7.10;;;2.22;;
31676;SDS011;18385;51.572;6.578;2022-10-28T01:47:28;11.98;;;3.95;;
31676;SDS011;18385;51.572;6.578;2022-10-28T01:50:05;15.20;;;2.67;;
31676;SDS011;18385;51.572;6.578;2022-10-28T01:52:53;7.18;;;3.55;;
31676;SDS011;18385;51.572;6.578;2022-10-28T01:55:24;6.47;;;2.70;;
31676;SDS011;18385;51.572;6.578;2022-10-28T01:57:52;5.65;;;2.83;;
31676;SDS011;18385;51.572;6.578;2022-10-28T02:00:20;12.18;;;2.40;;
31676;SDS011;18385;51.572;6.578;2022-10-28T02:02:46;6.47;;;2.42;;
31676;SDS011;18385;51.572;6.578;2022-10-28T02:07:58;10.52;;;2.72;;
31676;SDS011;18385;51.572;6.578;2022-10-28T02:10:31;8.23;;;2.60;;
31676;SDS011;18385;51.572;6.578;2022-10-28T02:13:01;9.90;;;2.58;;
31676;SDS011;18385;51.572;6.578;2022-10-28T02:15:56;9.68;;;3.35;;
31676;SDS011;18385;51.572;6.578;2022-10-28T02:21:27;11.85;;;2.67;;
31676;SDS011;18385;51.572;6.578;2022-10-28T02:24:00;10.60;;;3.78;;
31676;SDS011;18385;51.572;6.578;2022-10-28T02:27:00;8.20;;;2.47;;
31676;SDS011;18385;51.572;6.578;2022-10-28T02:29:33;10.07;;;2.20;;
31676;SDS011;18385;51.572;6.578;2022-10-28T02:32:06;7.18;;;2.42;;
31676;SDS011;18385;51.572;6.578;2022-10-28T02:34:36;6.97;;;2.20;;
31676;SDS011;18385;51.572;6.578;2022-10-28T02:37:07;7.75;;;2.45;;
31676;SDS011;18385;51.572;6.578;2022-10-28T02:39:39;13.10;;;2.40;;
31676;SDS011;18385;51.572;6.578;2022-10-28T02:42:13;10.25;;;3.22;;
31676;SDS011;18385;51.572;6.578;2022-10-28T02:44:46;14.35;;;2.65;;
31676;SDS011;18385;51.572;6.578;2022-10-28T02:47:18;10.32;;;4.20;;
31676;SDS011;18385;51.572;6.578;2022-10-28T02:49:49;12.02;;;3.53;;
31676;SDS011;18385;51.572;6.578;2022-10-28T02:52:20;10.13;;;3.28;;
31676;SDS011;18385;51.572;6.578;2022-10-28T02:54:49;11.45;;;2.95;;
31676;SDS011;18385;51.572;6.578;2022-10-28T02:57:20;9.95;;;2.22;;
31676;SDS011;18385;51.572;6.578;2022-10-28T02:59:56;13.05;;;2.25;;
31676;SDS011;18385;51.572;6.578;2022-10-28T03:02:23;14.55;;;3.22;;
31676;SDS011;18385;51.572;6.578;2022-10-28T03:04:50;10.55;;;3.58;;
31676;SDS011;18385;51.572;6.578;2022-10-28T03:07:16;7.78;;;2.53;;
31676;SDS011;18385;51.572;6.578;2022-10-28T03:09:42;14.05;;;2.78;;
31676;SDS011;18385;51.572;6.578;2022-10-28T03:12:07;9.13;;;2.65;;
31676;SDS011;18385;51.572;6.578;2022-10-28T03:14:33;8.60;;;3.30;;
31676;SDS011;18385;51.572;6.578;2022-10-28T03:16:59;12.35;;;3.38;;
31676;SDS011;18385;51.572;6.578;2022-10-28T03:19:24;10.40;;;2.50;;
31676;SDS011;18385;51.572;6.578;2022-10-28T03:21:50;14.30;;;2.92;;
31676;SDS011;18385;51.572;6.578;2022-10-28T03:24:16;10.45;;;2.50;;
31676;SDS011;18385;51.572;6.578;2022-10-28T03:26:41;10.63;;;3.08;;
31676;SDS011;18385;51.572;6.578;2022-10-28T03:29:07;9.52;;;2.72;;
31676;SDS011;18385;51.572;6.578;2022-10-28T03:31:33;13.38;;;3.15;;
31676;SDS011;18385;51.572;6.578;2022-10-28T03:33:58;8.73;;;2.58;;
31676;SDS011;18385;51.572;6.578;2022-10-28T03:36:24;12.77;;;3.28;;
31676;SDS011;18385;51.572;6.578;2022-10-28T03:38:49;5.65;;;2.63;;
31676;SDS011;18385;51.572;6.578;2022-10-28T03:41:15;8.10;;;2.10;;
31676;SDS011;18385;51.572;6.578;2022-10-28T03:43:41;13.13;;;3.05;;
31676;SDS011;18385;51.572;6.578;2022-10-28T03:46:07;9.48;;;2.88;;
31676;SDS011;18385;51.572;6.578;2022-10-28T03:48:32;10.27;;;3.03;;
31676;SDS011;18385;51.572;6.578;2022-10-28T03:50:58;12.73;;;3.13;;
31676;SDS011;18385;51.572;6.578;2022-10-28T03:53:23;15.25;;;3.40;;
31676;SDS011;18385;51.572;6.578;2022-10-28T03:55:53;14.13;;;3.10;;
31676;SDS011;18385;51.572;6.578;2022-10-28T03:58:19;8.68;;;2.40;;
31676;SDS011;18385;51.572;6.578;2022-10-28T04:00:49;17.15;;;4.05;;
31676;SDS011;18385;51.572;6.578;2022-10-28T04:03:16;10.88;;;2.97;;
31676;SDS011;18385;51.572;6.578;2022-10-28T04:05:42;11.93;;;3.78;;
31676;SDS011;18385;51.572;6.578;2022-10-28T04:08:08;13.13;;;3.47;;
31676;SDS011;18385;51.572;6.578;2022-10-28T04:10:34;8.15;;;3.33;;
31676;SDS011;18385;51.572;6.578;2022-10-28T04:13:01;15.65;;;4.90;;
31676;SDS011;18385;51.572;6.578;2022-10-28T04:15:27;14.38;;;2.85;;
31676;SDS011;18385;51.572;6.578;2022-10-28T04:17:53;14.48;;;2.92;;
31676;SDS011;18385;51.572;6.578;2022-10-28T04:20:19;8.23;;;2.85;;
31676;SDS011;18385;51.572;6.578;2022-10-28T04:22:44;11.82;;;3.60;;
31676;SDS011;18385;51.572;6.578;2022-10-28T04:25:10;9.30;;;3.42;;
31676;SDS011;18385;51.572;6.578;2022-10-28T04:27:36;13.30;;;3.03;;
31676;SDS011;18385;51.572;6.578;2022-10-28T04:30:02;8.02;;;2.78;;
31676;SDS011;18385;51.572;6.578;2022-10-28T04:32:29;10.05;;;3.60;;
31676;SDS011;18385;51.572;6.578;2022-10-28T04:34:55;13.25;;;3.35;;
31676;SDS011;18385;51.572;6.578;2022-10-28T04:37:21;10.93;;;3.00;;
31676;SDS011;18385;51.572;6.578;2022-10-28T04:39:46;14.50;;;3.75;;
31676;SDS011;18385;51.572;6.578;2022-10-28T04:42:12;8.10;;;3.10;;
31676;SDS011;18385;51.572;6.578;2022-10-28T04:44:38;11.00;;;3.70;;
31676;SDS011;18385;51.572;6.578;2022-10-28T04:47:03;10.73;;;3.55;;
31676;SDS011;18385;51.572;6.578;2022-10-28T04:49:29;15.32;;;3.13;;
31676;SDS011;18385;51.572;6.578;2022-10-28T04:51:55;7.90;;;3.10;;
31676;SDS011;18385;51.572;6.578;2022-10-28T04:54:20;12.07;;;3.33;;
31676;SDS011;18385;51.572;6.578;2022-10-28T04:56:46;14.00;;;3.40;;
31676;SDS011;18385;51.572;6.578;2022-10-28T04:59:12;14.45;;;3.80;;
31676;SDS011;18385;51.572;6.578;2022-10-28T05:01:37;20.88;;;4.22;;
31676;SDS011;18385;51.572;6.578;2022-10-28T05:04:03;13.98;;;3.95;;
31676;SDS011;18385;51.572;6.578;2022-10-28T05:06:29;11.75;;;3.17;;
31676;SDS011;18385;51.572;6.578;2022-10-28T05:08:55;14.75;;;4.47;;
31676;SDS011;18385;51.572;6.578;2022-10-28T05:11:20;22.38;;;3.80;;
31676;SDS011;18385;51.572;6.578;2022-10-28T05:13:46;15.50;;;3.40;;
31676;SDS011;18385;51.572;6.578;2022-10-28T05:16:12;12.18;;;3.45;;
31676;SDS011;18385;51.572;6.578;2022-10-28T05:18:37;13.45;;;3.25;;
31676;SDS011;18385;51.572;6.578;2022-10-28T05:21:03;17.40;;;3.83;;
31676;SDS011;18385;51.572;6.578;2022-10-28T05:23:29;15.43;;;3.60;;
31676;SDS011;18385;51.572;6.578;2022-10-28T05:25:54;14.20;;;3.55;;
31676;SDS011;18385;51.572;6.578;2022-10-28T05:28:20;7.78;;;2.88;;
31676;SDS011;18385;51.572;6.578;2022-10-28T05:30:46;12.00;;;3.70;;
31676;SDS011;18385;51.572;6.578;2022-10-28T05:33:11;14.00;;;3.63;;
31676;SDS011;18385;51.572;6.578;2022-10-28T05:35:37;8.80;;;3.42;;
31676;SDS011;18385;51.572;6.578;2022-10-28T05:38:04;10.73;;;2.90;;
31676;SDS011;18385;51.572;6.578;2022-10-28T05:40:30;12.15;;;3.10;;
31676;SDS011;18385;51.572;6.578;2022-10-28T05:42:59;15.02;;;4.25;;
31676;SDS011;18385;51.572;6.578;2022-10-28T05:45:26;12.25;;;3.17;;
31676;SDS011;18385;51.572;6.578;2022-10-28T05:47:52;16.50;;;4.10;;
31676;SDS011;18385;51.572;6.578;2022-10-28T05:50:17;13.63;;;3.97;;
31676;SDS011;18385;51.572;6.578;2022-10-28T05:52:45;15.70;;;3.67;;
31676;SDS011;18385;51.572;6.578;2022-10-28T05:55:19;18.33;;;3.65;;
31676;SDS011;18385;51.572;6.578;2022-10-28T05:57:46;14.40;;;3.10;;
31676;SDS011;18385;51.572;6.578;2022-10-28T06:00:13;10.38;;;3.40;;
31676;SDS011;18385;51.572;6.578;2022-10-28T06:02:40;9.93;;;3.10;;
31676;SDS011;18385;51.572;6.578;2022-10-28T06:05:06;16.48;;;4.18;;
31676;SDS011;18385;51.572;6.578;2022-10-28T06:07:33;16.48;;;4.90;;
31676;SDS011;18385;51.572;6.578;2022-10-28T06:09:59;14.43;;;4.20;;
31676;SDS011;18385;51.572;6.578;2022-10-28T06:12:26;12.13;;;3.83;;
31676;SDS011;18385;51.572;6.578;2022-10-28T06:14:51;17.20;;;4.78;;
31676;SDS011;18385;51.572;6.578;2022-10-28T06:17:17;17.40;;;5.07;;
31676;SDS011;18385;51.572;6.578;2022-10-28T06:19:42;15.63;;;4.90;;
31676;SDS011;18385;51.572;6.578;2022-10-28T06:22:08;13.75;;;4.28;;
31676;SDS011;18385;51.572;6.578;2022-10-28T06:24:34;13.23;;;4.63;;
31676;SDS011;18385;51.572;6.578;2022-10-28T06:26:59;16.98;;;4.43;;
31676;SDS011;18385;51.572;6.578;2022-10-28T06:29:25;19.25;;;3.97;;
31676;SDS011;18385;51.572;6.578;2022-10-28T06:31:51;49.47;;;5.63;;
31676;SDS011;18385;51.572;6.578;2022-10-28T06:34:16;17.48;;;3.65;;
31676;SDS011;18385;51.572;6.578;2022-10-28T06:36:42;17.73;;;3.83;;
31676;SDS011;18385;51.572;6.578;2022-10-28T06:39:08;12.10;;;4.32;;
31676;SDS011;18385;51.572;6.578;2022-10-28T06:41:33;11.50;;;4.10;;
31676;SDS011;18385;51.572;6.578;2022-10-28T06:43:59;16.77;;;4.03;;
31676;SDS011;18385;51.572;6.578;2022-10-28T06:46:25;19.98;;;4.28;;
31676;SDS011;18385;51.572;6.578;2022-10-28T06:48:52;12.45;;;4.18;;
31676;SDS011;18385;51.572;6.578;2022-10-28T06:51:18;19.50;;;4.45;;
31676;SDS011;18385;51.572;6.578;2022-10-28T06:53:47;13.73;;;4.05;;
31676;SDS011;18385;51.572;6.578;2022-10-28T06:56:14;14.25;;;4.50;;
31676;SDS011;18385;51.572;6.578;2022-10-28T06:58:39;13.13;;;4.25;;
31676;SDS011;18385;51.572;6.578;2022-10-28T07:01:05;14.50;;;3.50;;
31676;SDS011;18385;51.572;6.578;2022-10-28T07:03:31;10.68;;;3.13;;
31676;SDS011;18385;51.572;6.578;2022-10-28T07:05:57;13.38;;;3.30;;
31676;SDS011;18385;51.572;6.578;2022-10-28T07:08:23;10.07;;;3.40;;
31676;SDS011;18385;51.572;6.578;2022-10-28T07:10:54;16.25;;;4.97;;
31676;SDS011;18385;51.572;6.578;2022-10-28T07:13:21;14.00;;;3.47;;
31676;SDS011;18385;51.572;6.578;2022-10-28T07:15:53;13.57;;;4.20;;
31676;SDS011;18385;51.572;6.578;2022-10-28T07:18:21;11.95;;;3.58;;
31676;SDS011;18385;51.572;6.578;2022-10-28T07:20:48;11.35;;;3.70;;
31676;SDS011;18385;51.572;6.578;2022-10-28T07:23:13;16.73;;;3.35;;
31676;SDS011;18385;51.572;6.578;2022-10-28T07:25:39;17.38;;;3.42;;
31676;SDS011;18385;51.572;6.578;2022-10-28T07:28:05;16.42;;;4.40;;
31676;SDS011;18385;51.572;6.578;2022-10-28T07:30:31;15.68;;;3.88;;
31676;SDS011;18385;51.572;6.578;2022-10-28T07:32:57;15.65;;;3.53;;
31676;SDS011;18385;51.572;6.578;2022-10-28T07:35:28;7.82;;;3.53;;
31676;SDS011;18385;51.572;6.578;2022-10-28T07:37:54;18.67;;;3.38;;
31676;SDS011;18385;51.572;6.578;2022-10-28T07:40:21;11.70;;;3.33;;
31676;SDS011;18385;51.572;6.578;2022-10-28T07:42:47;12.45;;;3.13;;
31676;SDS011;18385;51.572;6.578;2022-10-28T07:45:13;12.38;;;3.30;;
31676;SDS011;18385;51.572;6.578;2022-10-28T07:47:39;14.15;;;3.05;;
31676;SDS011;18385;51.572;6.578;2022-10-28T07:50:05;19.30;;;3.17;;
31676;SDS011;18385;51.572;6.578;2022-10-28T07:52:31;12.80;;;4.70;;
31676;SDS011;18385;51.572;6.578;2022-10-28T07:54:58;12.18;;;2.70;;
31676;SDS011;18385;51.572;6.578;2022-10-28T07:57:24;12.13;;;3.67;;
31676;SDS011;18385;51.572;6.578;2022-10-28T07:59:50;18.55;;;3.38;;
31676;SDS011;18385;51.572;6.578;2022-10-28T08:02:19;9.30;;;2.88;;
31676;SDS011;18385;51.572;6.578;2022-10-28T08:04:47;17.25;;;3.00;;
31676;SDS011;18385;51.572;6.578;2022-10-28T08:07:13;8.65;;;3.17;;
31676;SDS011;18385;51.572;6.578;2022-10-28T08:09:39;12.07;;;2.90;;
31676;SDS011;18385;51.572;6.578;2022-10-28T08:12:05;12.15;;;2.95;;
31676;SDS011;18385;51.572;6.578;2022-10-28T08:14:32;15.75;;;3.65;;
31676;SDS011;18385;51.572;6.578;2022-10-28T08:16:58;11.68;;;3.67;;
31676;SDS011;18385;51.572;6.578;2022-10-28T08:19:24;16.83;;;4.38;;
31676;SDS011;18385;51.572;6.578;2022-10-28T08:21:50;15.20;;;2.90;;
31676;SDS011;18385;51.572;6.578;2022-10-28T08:24:16;17.67;;;3.42;;
31676;SDS011;18385;51.572;6.578;2022-10-28T08:26:41;10.40;;;2.72;;
31676;SDS011;18385;51.572;6.578;2022-10-28T08:29:08;12.23;;;3.45;;
31676;SDS011;18385;51.572;6.578;2022-10-28T08:31:35;12.77;;;3.23;;
31676;SDS011;18385;51.572;6.578;2022-10-28T08:34:02;12.50;;;3.58;;
31676;SDS011;18385;51.572;6.578;2022-10-28T08:36:27;9.02;;;2.88;;
31676;SDS011;18385;51.572;6.578;2022-10-28T08:38:53;17.60;;;3.17;;
31676;SDS011;18385;51.572;6.578;2022-10-28T08:41:39;10.77;;;2.58;;
31676;SDS011;18385;51.572;6.578;2022-10-28T08:49:46;6.22;;;2.10;;
31676;SDS011;18385;51.572;6.578;2022-10-28T08:52:24;9.93;;;2.50;;
31676;SDS011;18385;51.572;6.578;2022-10-28T08:55:01;9.55;;;2.83;;
31676;SDS011;18385;51.572;6.578;2022-10-28T09:00:07;9.75;;;3.17;;
31676;SDS011;18385;51.572;6.578;2022-10-28T09:03:27;11.77;;;3.13;;
31676;SDS011;18385;51.572;6.578;2022-10-28T09:05:29;11.15;;;2.70;;
31676;SDS011;18385;51.572;6.578;2022-10-28T09:07:55;11.60;;;3.00;;
31676;SDS011;18385;51.572;6.578;2022-10-28T09:10:33;11.00;;;2.50;;
31676;SDS011;18385;51.572;6.578;2022-10-28T09:13:23;12.20;;;3.03;;
31676;SDS011;18385;51.572;6.578;2022-10-28T09:16:21;11.63;;;2.67;;
31676;SDS011;18385;51.572;6.578;2022-10-28T09:19:07;7.97;;;2.38;;
31676;SDS011;18385;51.572;6.578;2022-10-28T09:24:18;10.60;;;2.53;;
31676;SDS011;18385;51.572;6.578;2022-10-28T09:29:54;11.25;;;2.60;;
31676;SDS011;18385;51.572;6.578;2022-10-28T09:32:50;10.35;;;2.90;;
31676;SDS011;18385;51.572;6.578;2022-10-28T09:35:24;8.25;;;2.50;;
31676;SDS011;18385;51.572;6.578;2022-10-28T09:37:54;7.20;;;2.20;;
31676;SDS011;18385;51.572;6.578;2022-10-28T09:40:26;10.02;;;3.80;;
31676;SDS011;18385;51.572;6.578;2022-10-28T09:43:00;6.63;;;2.55;;
31676;SDS011;18385;51.572;6.578;2022-10-28T09:45:35;7.80;;;2.63;;
31676;SDS011;18385;51.572;6.578;2022-10-28T09:48:20;18.08;;;2.30;;
31676;SDS011;18385;51.572;6.578;2022-10-28T09:50:49;10.73;;;2.72;;
31676;SDS011;18385;51.572;6.578;2022-10-28T09:53:34;13.30;;;2.58;;
31676;SDS011;18385;51.572;6.578;2022-10-28T09:56:08;7.03;;;2.10;;
31676;SDS011;18385;51.572;6.578;2022-10-28T09:58:35;9.77;;;3.05;;
31676;SDS011;18385;51.572;6.578;2022-10-28T10:01:02;11.93;;;3.35;;
31676;SDS011;18385;51.572;6.578;2022-10-28T10:03:29;11.43;;;3.08;;
31676;SDS011;18385;51.572;6.578;2022-10-28T10:05:56;11.95;;;3.05;;
31676;SDS011;18385;51.572;6.578;2022-10-28T10:08:26;13.25;;;2.47;;
31676;SDS011;18385;51.572;6.578;2022-10-28T10:10:55;7.10;;;2.17;;
31676;SDS011;18385;51.572;6.578;2022-10-28T10:13:38;16.35;;;3.05;;
31676;SDS011;18385;51.572;6.578;2022-10-28T10:16:25;10.60;;;3.03;;
31676;SDS011;18385;51.572;6.578;2022-10-28T10:19:08;14.38;;;2.72;;
31676;SDS011;18385;51.572;6.578;2022-10-28T10:21:48;18.47;;;3.30;;
31676;SDS011;18385;51.572;6.578;2022-10-28T10:24:20;18.85;;;3.20;;
31676;SDS011;18385;51.572;6.578;2022-10-28T10:27:20;13.48;;;2.45;;
31676;SDS011;18385;51.572;6.578;2022-10-28T10:29:49;11.27;;;2.85;;
31676;SDS011;18385;51.572;6.578;2022-10-28T10:32:17;10.07;;;2.88;;
31676;SDS011;18385;51.572;6.578;2022-10-28T10:34:44;13.50;;;2.97;;
31676;SDS011;18385;51.572;6.578;2022-10-28T10:37:26;15.52;;;2.50;;
31676;SDS011;18385;51.572;6.578;2022-10-28T10:40:15;10.40;;;2.47;;
31676;SDS011;18385;51.572;6.578;2022-10-28T10:42:50;10.10;;;2.40;;
31676;SDS011;18385;51.572;6.578;2022-10-28T10:45:24;12.38;;;2.92;;
31676;SDS011;18385;51.572;6.578;2022-10-28T10:48:09;12.50;;;2.53;;
31676;SDS011;18385;51.572;6.578;2022-10-28T10:50:38;7.05;;;2.25;;
31676;SDS011;18385;51.572;6.578;2022-10-28T10:53:05;11.40;;;2.83;;
31676;SDS011;18385;51.572;6.578;2022-10-28T10:58:05;11.07;;;2.53;;
31676;SDS011;18385;51.572;6.578;2022-10-28T11:00:43;11.43;;;2.50;;
31676;SDS011;18385;51.572;6.578;2022-10-28T11:03:33;13.75;;;3.33;;
31676;SDS011;18385;51.572;6.578;2022-10-28T11:06:03;9.05;;;2.45;;
31676;SDS011;18385;51.572;6.578;2022-10-28T11:08:41;8.20;;;3.20;;
31676;SDS011;18385;51.572;6.578;2022-10-28T11:11:18;9.65;;;2.28;;
31676;SDS011;18385;51.572;6.578;2022-10-28T11:13:45;11.10;;;2.97;;
31676;SDS011;18385;51.572;6.578;2022-10-28T11:16:16;11.68;;;2.85;;
31676;SDS011;18385;51.572;6.578;2022-10-28T11:18:48;10.45;;;3.25;;
31676;SDS011;18385;51.572;6.578;2022-10-28T11:29:23;11.07;;;2.60;;
31676;SDS011;18385;51.572;6.578;2022-10-28T11:45:30;14.98;;;2.72;;
31676;SDS011;18385;51.572;6.578;2022-10-28T11:56:16;7.78;;;2.38;;
31676;SDS011;18385;51.572;6.578;2022-10-28T12:01:53;9.27;;;2.75;;
31676;SDS011;18385;51.572;6.578;2022-10-28T12:10:16;11.95;;;2.30;;
31676;SDS011;18385;51.572;6.578;2022-10-28T12:18:29;7.72;;;2.40;;
31676;SDS011;18385;51.572;6.578;2022-10-28T12:21:09;13.40;;;3.35;;
31676;SDS011;18385;51.572;6.578;2022-10-28T12:23:55;13.82;;;3.03;;
31676;SDS011;18385;51.572;6.578;2022-10-28T12:26:33;6.28;;;2.65;;
31676;SDS011;18385;51.572;6.578;2022-10-28T12:29:03;8.32;;;2.47;;
31676;SDS011;18385;51.572;6.578;2022-10-28T12:31:36;8.93;;;2.20;;
31676;SDS011;18385;51.572;6.578;2022-10-28T12:34:10;9.50;;;2.28;;
31676;SDS011;18385;51.572;6.578;2022-10-28T12:39:21;7.15;;;2.30;;
31676;SDS011;18385;51.572;6.578;2022-10-28T12:44:36;6.32;;;2.50;;
31676;SDS011;18385;51.572;6.578;2022-10-28T12:50:05;7.70;;;2.35;;
31676;SDS011;18385;51.572;6.578;2022-10-28T12:55:41;7.88;;;2.40;;
31676;SDS011;18385;51.572;6.578;2022-10-28T13:00:42;11.88;;;2.42;;
31676;SDS011;18385;51.572;6.578;2022-10-28T13:03:12;7.03;;;1.95;;
31676;SDS011;18385;51.572;6.578;2022-10-28T13:11:07;9.25;;;1.77;;
31676;SDS011;18385;51.572;6.578;2022-10-28T13:19:02;10.40;;;1.90;;
31676;SDS011;18385;51.572;6.578;2022-10-28T13:24:54;13.38;;;1.92;;
31676;SDS011;18385;51.572;6.578;2022-10-28T13:27:37;6.80;;;2.03;;
31676;SDS011;18385;51.572;6.578;2022-10-28T13:30:03;10.82;;;2.65;;
31676;SDS011;18385;51.572;6.578;2022-10-28T13:32:37;13.55;;;2.42;;
31676;SDS011;18385;51.572;6.578;2022-10-28T13:35:18;8.98;;;2.00;;
31676;SDS011;18385;51.572;6.578;2022-10-28T13:37:52;8.00;;;2.17;;
31676;SDS011;18385;51.572;6.578;2022-10-28T13:40:20;7.20;;;2.45;;
31676;SDS011;18385;51.572;6.578;2022-10-28T13:42:46;8.30;;;1.45;;
31676;SDS011;18385;51.572;6.578;2022-10-28T13:48:30;7.68;;;2.25;;
31676;SDS011;18385;51.572;6.578;2022-10-28T13:59:30;8.77;;;1.98;;
31676;SDS011;18385;51.572;6.578;2022-10-28T14:04:19;6.22;;;1.50;;
31676;SDS011;18385;51.572;6.578;2022-10-28T14:06:48;5.72;;;1.90;;
31676;SDS011;18385;51.572;6.578;2022-10-28T14:09:19;13.10;;;2.00;;
31676;SDS011;18385;51.572;6.578;2022-10-28T14:12:05;8.00;;;2.03;;
31676;SDS011;18385;51.572;6.578;2022-10-28T14:15:02;7.57;;;1.70;;
31676;SDS011;18385;51.572;6.578;2022-10-28T14:17:36;15.23;;;2.05;;
31676;SDS011;18385;51.572;6.578;2022-10-28T14:20:04;11.85;;;2.40;;
31676;SDS011;18385;51.572;6.578;2022-10-28T14:22:46;7.80;;;1.48;;
31676;SDS011;18385;51.572;6.578;2022-10-28T14:50:00;6.85;;;2.15;;
31676;SDS011;18385;51.572;6.578;2022-10-28T14:52:30;7.07;;;2.38;;
31676;SDS011;18385;51.572;6.578;2022-10-28T14:55:00;8.07;;;1.60;;
31676;SDS011;18385;51.572;6.578;2022-10-28T14:57:30;7.75;;;1.60;;
31676;SDS011;18385;51.572;6.578;2022-10-28T14:59:59;9.30;;;1.48;;
31676;SDS011;18385;51.572;6.578;2022-10-28T15:02:30;8.75;;;1.48;;
31676;SDS011;18385;51.572;6.578;2022-10-28T15:05:02;5.03;;;1.50;;
31676;SDS011;18385;51.572;6.578;2022-10-28T15:07:38;13.38;;;2.10;;
31676;SDS011;18385;51.572;6.578;2022-10-28T15:10:12;18.48;;;2.33;;
31676;SDS011;18385;51.572;6.578;2022-10-28T15:12:38;9.57;;;2.33;;
31676;SDS011;18385;51.572;6.578;2022-10-28T15:15:14;8.85;;;2.55;;
31676;SDS011;18385;51.572;6.578;2022-10-28T15:17:42;5.93;;;1.48;;
31676;SDS011;18385;51.572;6.578;2022-10-28T15:20:52;6.78;;;1.90;;
31676;SDS011;18385;51.572;6.578;2022-10-28T15:23:18;10.20;;;1.73;;
31676;SDS011;18385;51.572;6.578;2022-10-28T15:25:46;6.30;;;1.83;;
31676;SDS011;18385;51.572;6.578;2022-10-28T15:28:39;6.43;;;2.22;;
31676;SDS011;18385;51.572;6.578;2022-10-28T15:31:05;10.00;;;1.67;;
31676;SDS011;18385;51.572;6.578;2022-10-28T15:33:41;7.43;;;2.20;;
31676;SDS011;18385;51.572;6.578;2022-10-28T15:38:39;9.40;;;1.98;;
31676;SDS011;18385;51.572;6.578;2022-10-28T15:41:51;6.53;;;1.75;;
31676;SDS011;18385;51.572;6.578;2022-10-28T15:44:07;9.05;;;1.77;;
31676;SDS011;18385;51.572;6.578;2022-10-28T15:46:49;6.00;;;2.10;;
31676;SDS011;18385;51.572;6.578;2022-10-28T15:49:29;11.25;;;2.60;;
31676;SDS011;18385;51.572;6.578;2022-10-28T15:52:19;8.00;;;1.75;;
31676;SDS011;18385;51.572;6.578;2022-10-28T15:54:52;9.95;;;2.13;;
31676;SDS011;18385;51.572;6.578;2022-10-28T15:57:20;6.25;;;2.13;;
31676;SDS011;18385;51.572;6.578;2022-10-28T15:59:47;7.30;;;1.77;;
31676;SDS011;18385;51.572;6.578;2022-10-28T16:05:06;9.65;;;1.85;;
31676;SDS011;18385;51.572;6.578;2022-10-28T16:07:56;10.80;;;2.28;;
31676;SDS011;18385;51.572;6.578;2022-10-28T16:10:24;11.13;;;2.58;;
31676;SDS011;18385;51.572;6.578;2022-10-28T16:12:53;7.90;;;1.67;;
31676;SDS011;18385;51.572;6.578;2022-10-28T16:15:19;12.38;;;2.33;;
31676;SDS011;18385;51.572;6.578;2022-10-28T16:17:45;9.05;;;1.80;;
31676;SDS011;18385;51.572;6.578;2022-10-28T16:20:12;10.75;;;1.83;;
31676;SDS011;18385;51.572;6.578;2022-10-28T16:22:41;4.97;;;1.70;;
31676;SDS011;18385;51.572;6.578;2022-10-28T16:25:13;11.43;;;2.42;;
31676;SDS011;18385;51.572;6.578;2022-10-28T16:27:38;8.25;;;2.33;;
31676;SDS011;18385;51.572;6.578;2022-10-28T16:30:04;7.78;;;1.60;;
31676;SDS011;18385;51.572;6.578;2022-10-28T16:32:33;10.15;;;2.35;;
31676;SDS011;18385;51.572;6.578;2022-10-28T16:35:01;4.97;;;1.95;;
31676;SDS011;18385;51.572;6.578;2022-10-28T16:37:29;8.48;;;2.03;;
31676;SDS011;18385;51.572;6.578;2022-10-28T16:39:56;6.47;;;2.00;;
31676;SDS011;18385;51.572;6.578;2022-10-28T16:42:22;6.00;;;1.77;;
31676;SDS011;18385;51.572;6.578;2022-10-28T16:44:49;8.13;;;2.33;;
31676;SDS011;18385;51.572;6.578;2022-10-28T16:47:16;10.63;;;1.73;;
31676;SDS011;18385;51.572;6.578;2022-10-28T16:49:43;10.15;;;2.38;;
31676;SDS011;18385;51.572;6.578;2022-10-28T16:52:16;11.25;;;2.38;;
31676;SDS011;18385;51.572;6.578;2022-10-28T16:54:44;10.32;;;2.83;;
31676;SDS011;18385;51.572;6.578;2022-10-28T16:57:10;7.57;;;1.77;;
31676;SDS011;18385;51.572;6.578;2022-10-28T16:59:36;6.30;;;1.92;;
31676;SDS011;18385;51.572;6.578;2022-10-28T17:02:02;12.57;;;2.13;;
31676;SDS011;18385;51.572;6.578;2022-10-28T17:04:28;9.30;;;2.40;;
31676;SDS011;18385;51.572;6.578;2022-10-28T17:06:54;8.60;;;2.42;;
31676;SDS011;18385;51.572;6.578;2022-10-28T17:09:20;7.68;;;2.08;;
31676;SDS011;18385;51.572;6.578;2022-10-28T17:11:47;8.80;;;2.00;;
31676;SDS011;18385;51.572;6.578;2022-10-28T17:14:12;7.35;;;2.35;;
31676;SDS011;18385;51.572;6.578;2022-10-28T17:16:38;8.32;;;2.08;;
31676;SDS011;18385;51.572;6.578;2022-10-28T17:19:04;7.60;;;2.03;;
31676;SDS011;18385;51.572;6.578;2022-10-28T17:21:30;8.52;;;2.33;;
31676;SDS011;18385;51.572;6.578;2022-10-28T17:23:55;15.35;;;2.50;;
31676;SDS011;18385;51.572;6.578;2022-10-28T17:26:21;8.85;;;2.53;;
31676;SDS011;18385;51.572;6.578;2022-10-28T17:28:50;9.55;;;2.15;;
31676;SDS011;18385;51.572;6.578;2022-10-28T17:31:16;6.57;;;2.05;;
31676;SDS011;18385;51.572;6.578;2022-10-28T17:33:44;14.02;;;2.83;;
31676;SDS011;18385;51.572;6.578;2022-10-28T17:36:09;8.90;;;2.30;;
31676;SDS011;18385;51.572;6.578;2022-10-28T17:38:35;7.50;;;2.13;;
31676;SDS011;18385;51.572;6.578;2022-10-28T17:41:01;10.65;;;2.80;;
31676;SDS011;18385;51.572;6.578;2022-10-28T17:43:27;6.35;;;2.25;;
31676;SDS011;18385;51.572;6.578;2022-10-28T17:46:01;7.78;;;2.72;;